Time;durP1;ratioP1;P1;durP2;ratioP2;P2;SDS_P1;SDS_P2;PMS_P1;PMS_P2;Temp;Humidity;BMP_temperature;BMP_pressure;BME280_temperature;BME280_humidity;BME280_pressure;Samples;Min_cycle;Max_cycle;Signal;HPM_P1;HPM_P2
2022/07/09 00:00:25;;;;;;;3.43;1.60;;;15.30;99.90;;;;;;20833648;28;20104;-75
2022/07/09 00:10:26;;;;;;;3.77;1.57;;;15.20;99.90;;;;;;20851882;28;20504;-76
2022/07/09 00:20:27;;;;;;;8.53;1.70;;;15.00;99.90;;;;;;20850964;28;20533;-75
2022/07/09 00:30:28;;;;;;;3.37;1.70;;;15.00;99.90;;;;;;20850888;28;20034;-76
2022/07/09 00:40:29;;;;;;;6.47;1.50;;;14.90;99.90;;;;;;20848951;28;20041;-76
2022/07/09 00:50:30;;;;;;;5.03;1.70;;;15.00;99.90;;;;;;20849791;28;20022;-76
2022/07/09 01:00:33;;;;;;;4.28;1.50;;;14.90;99.90;;;;;;20849364;28;20025;-76
2022/07/09 01:10:35;;;;;;;2.50;1.40;;;14.80;99.90;;;;;;20844913;28;20474;-75
2022/07/09 01:20:36;;;;;;;;;;;14.60;99.90;;;;;;20836320;28;20041;-76
2022/07/09 01:30:39;;;;;;;4.10;1.77;;;14.50;99.90;;;;;;20834644;28;20515;-75
2022/07/09 01:40:40;;;;;;;3.95;1.25;;;14.80;99.90;;;;;;20832925;28;20029;-76
2022/07/09 01:50:41;;;;;;;6.47;1.50;;;14.80;99.90;;;;;;20833318;28;20079;-76
2022/07/09 02:00:43;;;;;;;3.03;1.93;;;14.80;99.90;;;;;;20832461;28;20029;-75
2022/07/09 02:10:45;;;;;;;7.95;1.55;;;14.40;99.90;;;;;;20831908;28;20069;-75
2022/07/09 02:20:46;;;;;;;10.02;1.90;;;13.60;99.90;;;;;;20831099;28;20099;-76
2022/07/09 02:30:47;;;;;;;3.40;1.67;;;13.40;99.90;;;;;;20831161;28;20569;-76
2022/07/09 02:40:48;;;;;;;3.10;1.57;;;13.30;99.90;;;;;;20830797;28;20063;-75
2022/07/09 02:50:49;;;;;;;8.40;1.87;;;13.40;99.90;;;;;;20829825;28;20033;-75
2022/07/09 03:00:50;;;;;;;5.38;1.48;;;13.40;99.90;;;;;;20827629;28;20531;-76
2022/07/09 03:10:51;;;;;;;4.50;1.40;;;13.40;99.90;;;;;;20828450;28;20029;-76
2022/07/09 03:20:52;;;;;;;4.10;1.27;;;13.60;99.90;;;;;;20828136;28;20580;-76
2022/07/09 03:30:52;;;;;;;3.80;1.70;;;13.60;99.90;;;;;;20827455;28;20037;-76
2022/07/09 03:40:53;;;;;;;3.47;1.33;;;13.60;99.90;;;;;;20824387;28;20112;-75
2022/07/09 03:50:54;;;;;;;5.10;1.40;;;13.50;99.90;;;;;;20878451;28;20043;-76
2022/07/09 04:00:55;;;;;;;5.67;1.63;;;13.50;99.90;;;;;;20845849;28;20113;-76
2022/07/09 04:10:56;;;;;;;4.37;1.70;;;13.40;99.90;;;;;;20828535;28;20533;-78
2022/07/09 04:20:57;;;;;;;4.17;1.43;;;13.10;99.90;;;;;;20903680;28;20106;-78
2022/07/09 04:30:58;;;;;;;6.40;1.60;;;13.30;99.90;;;;;;20910457;28;20607;-78
2022/07/09 04:40:59;;;;;;;9.27;1.40;;;13.40;99.90;;;;;;20910773;28;20033;-77
2022/07/09 04:50:59;;;;;;;5.30;1.40;;;13.60;99.90;;;;;;20921336;28;20102;-78
2022/07/09 05:01:00;;;;;;;8.53;2.33;;;13.80;99.90;;;;;;20926861;28;20044;-77
2022/07/09 05:11:01;;;;;;;6.80;1.90;;;14.10;99.90;;;;;;20931439;28;20492;-78
2022/07/09 05:21:02;;;;;;;4.43;2.27;;;14.30;99.90;;;;;;20934583;28;20096;-78
2022/07/09 05:31:03;;;;;;;4.83;2.30;;;14.70;99.90;;;;;;20917312;23;20477;-77
2022/07/09 05:41:04;;;;;;;4.83;2.30;;;15.00;99.90;;;;;;20861847;28;20079;-76
2022/07/09 05:51:05;;;;;;;6.43;2.23;;;15.00;99.90;;;;;;20915245;28;20072;-76
2022/07/09 06:01:06;;;;;;;6.90;2.33;;;15.40;99.90;;;;;;20915330;28;20436;-76
2022/07/09 06:11:07;;;;;;;5.50;2.47;;;16.10;99.90;;;;;;20914907;28;20028;-76
2022/07/09 06:21:08;;;;;;;6.87;1.80;;;16.50;99.90;;;;;;20919364;28;20075;-77
2022/07/09 06:31:09;;;;;;;5.10;1.90;;;16.70;99.90;;;;;;20913007;28;20454;-76
2022/07/09 06:41:10;;;;;;;7.03;1.93;;;17.60;99.90;;;;;;20911948;28;20040;-76
2022/07/09 06:51:11;;;;;;;5.20;1.67;;;18.00;99.90;;;;;;20915044;28;20031;-76
2022/07/09 07:01:11;;;;;;;3.77;1.53;;;18.70;99.90;;;;;;20909674;28;20033;-77
2022/07/09 07:11:12;;;;;;;7.37;2.03;;;19.20;99.90;;;;;;20910358;28;20025;-77
2022/07/09 07:21:13;;;;;;;2.80;1.67;;;19.70;99.90;;;;;;20911843;28;20036;-77
2022/07/09 07:31:14;;;;;;;4.03;1.40;;;20.00;99.90;;;;;;20911285;28;20037;-76
2022/07/09 07:41:18;;;;;;;5.90;1.83;;;20.30;99.90;;;;;;20911382;28;20025;-76
2022/07/09 07:51:19;;;;;;;10.93;1.33;;;20.20;99.90;;;;;;20908119;28;20079;-76
2022/07/09 08:01:19;;;;;;;3.43;1.13;;;21.10;99.90;;;;;;20908305;28;20485;-77
2022/07/09 08:11:20;;;;;;;3.37;1.47;;;21.80;99.90;;;;;;20909417;28;20036;-77
2022/07/09 08:21:21;;;;;;;3.03;1.20;;;22.10;99.90;;;;;;20923152;28;20037;-76
2022/07/09 08:31:23;;;;;;;2.83;0.80;;;22.50;99.90;;;;;;20921761;28;20033;-76
2022/07/09 08:41:23;;;;;;;3.83;1.00;;;23.20;99.90;;;;;;20921299;28;20495;-76
2022/07/09 08:51:25;;;;;;;5.53;1.23;;;22.90;99.90;;;;;;20923455;28;20056;-76
2022/07/09 09:01:27;;;;;;;4.32;1.15;;;22.90;99.90;;;;;;20922708;28;20079;-75
2022/07/09 09:11:28;;;;;;;2.28;0.90;;;23.70;99.90;;;;;;20921249;28;20041;-75
2022/07/09 09:21:29;;;;;;;;;;;24.50;99.90;;;;;;20919343;28;20408;-76
2022/07/09 09:31:35;;;;;;;2.17;1.03;;;25.30;99.90;;;;;;20916854;28;19920;-76
2022/07/09 09:41:36;;;;;;;2.47;0.73;;;25.00;99.90;;;;;;20916217;28;20033;-76
2022/07/09 09:51:43;;;;;;;3.80;1.00;;;26.00;99.90;;;;;;20917662;28;20091;-76
2022/07/09 10:01:44;;;;;;;2.70;1.00;;;25.50;99.90;;;;;;20919759;28;20033;-75
2022/07/09 10:11:48;;;;;;;1.67;0.80;;;26.40;99.90;;;;;;20917750;28;20116;-76
2022/07/09 10:21:55;;;;;;;2.72;0.63;;;27.20;99.90;;;;;;20915381;28;20588;-75
2022/07/09 10:31:56;;;;;;;5.57;1.48;;;27.00;99.90;;;;;;20910557;28;20094;-76
2022/07/09 10:42:06;;;;;;;3.55;0.82;;;27.10;99.90;;;;;;20904833;28;20025;-75
2022/07/09 10:52:07;;;;;;;1.40;0.70;;;28.00;99.90;;;;;;20905322;28;20025;-75
2022/07/09 11:02:17;;;;;;;2.70;0.70;;;27.50;99.90;;;;;;20892752;28;20040;-76
2022/07/09 11:12:21;;;;;;;6.80;0.80;;;28.50;99.90;;;;;;20874867;28;20508;-77
2022/07/09 11:22:22;;;;;;;0.88;0.50;;;28.00;99.90;;;;;;20887928;28;20037;-77
2022/07/09 11:32:23;;;;;;;6.80;0.77;;;28.40;99.90;;;;;;20895663;23;20049;-76
2022/07/09 11:42:24;;;;;;;1.87;0.67;;;28.30;99.90;;;;;;20888494;28;20310;-76
2022/07/09 11:52:25;;;;;;;2.47;0.75;;;28.90;99.60;;;;;;20886981;28;20317;-75
2022/07/09 12:02:32;;;;;;;4.43;0.68;;;28.30;99.90;;;;;;20886980;28;20040;-76
2022/07/09 12:12:35;;;;;;;5.07;0.80;;;28.30;99.90;;;;;;20889833;28;20047;-76
2022/07/09 12:22:36;;;;;;;2.10;0.88;;;29.10;99.90;;;;;;20893064;28;20408;-76
2022/07/09 12:32:37;;;;;;;2.67;0.88;;;29.40;99.10;;;;;;20887188;28;20852;-76
2022/07/09 12:42:39;;;;;;;1.50;0.68;;;28.70;99.90;;;;;;20887140;28;20033;-76
2022/07/09 12:52:39;;;;;;;4.03;0.90;;;27.50;99.90;;;;;;20886867;28;20116;-75
2022/07/09 13:02:40;;;;;;;3.08;0.70;;;29.10;99.60;;;;;;20886835;28;20112;-75
2022/07/09 13:12:41;;;;;;;2.65;0.90;;;28.70;99.90;;;;;;20897901;28;20091;-76
2022/07/09 13:22:42;;;;;;;1.27;0.65;;;27.80;99.90;;;;;;20900927;28;20112;-76
2022/07/09 13:32:43;;;;;;;1.48;0.70;;;27.80;99.90;;;;;;20900163;28;20041;-75
2022/07/09 13:42:44;;;;;;;3.90;0.85;;;28.00;99.90;;;;;;20897710;28;20335;-76
2022/07/09 13:52:45;;;;;;;1.27;0.70;;;29.90;98.90;;;;;;20896934;28;20613;-76
2022/07/09 14:02:46;;;;;;;3.97;0.77;;;29.20;99.90;;;;;;20895553;28;20048;-75
2022/07/09 14:12:47;;;;;;;2.88;1.00;;;29.40;98.40;;;;;;20891062;28;20021;-74
2022/07/09 14:22:48;;;;;;;1.45;0.70;;;28.90;99.90;;;;;;20892301;28;20025;-74
2022/07/09 14:32:49;;;;;;;1.67;0.70;;;29.40;99.90;;;;;;20893736;28;20052;-75
2022/07/09 14:42:50;;;;;;;0.52;0.50;;;29.30;99.90;;;;;;20892811;28;20029;-75
2022/07/09 14:52:51;;;;;;;1.45;0.75;;;29.40;99.90;;;;;;20891946;28;20056;-75
2022/07/09 15:02:52;;;;;;;3.22;0.90;;;28.60;99.90;;;;;;20891527;28;20106;-75
2022/07/09 15:12:52;;;;;;;5.72;0.90;;;29.10;99.90;;;;;;20900984;28;20029;-75
2022/07/09 15:22:57;;;;;;;1.80;0.90;;;29.70;99.90;;;;;;20905772;28;20477;-74
2022/07/09 15:32:58;;;;;;;2.05;0.85;;;29.00;99.90;;;;;;20907529;28;20025;-74
2022/07/09 15:42:59;;;;;;;3.17;0.77;;;28.50;99.90;;;;;;20907779;28;20028;-74
2022/07/09 15:53:00;;;;;;;1.67;0.90;;;28.60;99.90;;;;;;20907218;28;20036;-74
2022/07/09 16:03:01;;;;;;;0.93;0.65;;;28.70;99.90;;;;;;20906462;28;20037;-74
2022/07/09 16:13:02;;;;;;;6.03;1.30;;;27.90;99.90;;;;;;20905032;28;20021;-74
2022/07/09 16:23:03;;;;;;;7.13;1.85;;;27.40;99.90;;;;;;20905832;28;20036;-74
2022/07/09 16:33:04;;;;;;;5.70;1.40;;;27.10;99.90;;;;;;20905279;28;20036;-74
2022/07/09 16:43:06;;;;;;;3.13;1.40;;;27.00;99.90;;;;;;20911485;28;20067;-74
2022/07/09 16:53:07;;;;;;;8.23;1.73;;;26.60;99.90;;;;;;20920625;28;20032;-74
2022/07/09 17:03:11;;;;;;;3.55;1.38;;;26.30;99.90;;;;;;20919476;28;20039;-75
2022/07/09 17:13:12;;;;;;;4.47;1.65;;;26.20;99.90;;;;;;20918483;28;20162;-74
2022/07/09 17:23:12;;;;;;;;;;;25.70;99.90;;;;;;20919115;28;20079;-74
2022/07/09 17:33:13;;;;;;;7.03;1.40;;;25.80;99.90;;;;;;20917881;28;19913;-74
2022/07/09 17:43:14;;;;;;;;;;;25.60;99.90;;;;;;20898458;28;20033;-74
2022/07/09 17:53:15;;;;;;;4.80;1.27;;;25.80;99.90;;;;;;20909656;28;19956;-75
2022/07/09 18:03:16;;;;;;;6.57;1.40;;;25.90;99.90;;;;;;20916858;28;20112;-76
2022/07/09 18:13:17;;;;;;;7.95;1.20;;;26.80;99.90;;;;;;20917322;28;20512;-77
2022/07/09 18:23:18;;;;;;;4.90;0.90;;;27.90;99.90;;;;;;20916914;28;20025;-76
2022/07/09 18:33:18;;;;;;;1.75;1.00;;;26.70;99.90;;;;;;20914759;28;20064;-77
2022/07/09 18:43:20;;;;;;;1.42;0.93;;;25.80;99.90;;;;;;20915973;28;20104;-77
2022/07/09 18:53:21;;;;;;;4.80;1.20;;;24.80;99.90;;;;;;20913729;28;20029;-76
2022/07/09 19:03:21;;;;;;;2.57;1.37;;;23.80;99.90;;;;;;20911915;28;20040;-76
2022/07/09 19:13:22;;;;;;;1.90;1.13;;;22.90;99.90;;;;;;20912145;28;20033;-76
2022/07/09 19:23:23;;;;;;;2.20;1.10;;;22.10;99.90;;;;;;20920264;28;20075;-75
2022/07/09 19:43:43;;;;;;;3.22;1.42;;;21.60;99.90;;;;;;20959259;28;20051;-84
2022/07/09 19:53:45;;;;;;;2.10;1.10;;;21.40;99.90;;;;;;20939402;28;20033;-82
2022/07/09 20:03:46;;;;;;;4.95;1.30;;;21.30;99.90;;;;;;20937669;28;20045;-81
2022/07/09 20:13:47;;;;;;;2.97;1.50;;;21.20;99.90;;;;;;20952460;28;20072;-83
2022/07/09 20:23:48;;;;;;;5.30;1.40;;;20.90;99.90;;;;;;20937909;28;20040;-81
2022/07/09 20:33:49;;;;;;;2.07;1.30;;;20.60;99.90;;;;;;20927797;28;20043;-82
2022/07/09 20:43:50;;;;;;;3.50;1.20;;;20.10;99.90;;;;;;20951990;28;20041;-82
2022/07/09 20:53:51;;;;;;;5.87;1.40;;;19.50;99.90;;;;;;20950104;28;20033;-86
2022/07/09 21:03:52;;;;;;;2.07;1.40;;;19.10;99.90;;;;;;20959178;28;20043;-79
2022/07/09 21:13:52;;;;;;;3.40;1.53;;;18.70;99.90;;;;;;20971747;28;20155;-85
2022/07/09 21:23:53;;;;;;;3.57;1.87;;;18.70;99.90;;;;;;20958153;28;20032;-84
2022/07/09 21:33:54;;;;;;;4.10;1.73;;;17.80;99.90;;;;;;20964874;28;20044;-83
2022/07/09 21:43:55;;;;;;;2.90;1.60;;;17.80;99.90;;;;;;20969351;28;20039;-82
2022/07/09 21:53:57;;;;;;;4.18;2.05;;;17.70;99.90;;;;;;20953905;28;20059;-81
2022/07/09 22:03:58;;;;;;;4.43;2.23;;;17.40;99.90;;;;;;20943718;28;20033;-81
2022/07/09 22:14:00;;;;;;;3.43;1.60;;;17.20;99.90;;;;;;20973916;28;20103;-83
2022/07/09 22:24:01;;;;;;;2.90;1.90;;;17.30;99.90;;;;;;20973928;28;20096;-82
2022/07/09 22:34:06;;;;;;;3.40;1.77;;;16.80;99.90;;;;;;20960359;28;20054;-84
2022/07/09 22:44:07;;;;;;;3.75;1.95;;;16.60;99.90;;;;;;20953189;28;20033;-81
2022/07/09 22:54:07;;;;;;;3.37;2.20;;;16.60;99.90;;;;;;20949632;28;20079;-81
2022/07/09 23:04:08;;;;;;;3.87;2.30;;;16.30;99.90;;;;;;20955354;28;20029;-83
2022/07/09 23:14:10;;;;;;;3.73;2.13;;;15.70;99.90;;;;;;20956402;28;20033;-83
2022/07/09 23:24:11;;;;;;;6.10;2.17;;;15.90;99.90;;;;;;20945359;28;20142;-81
2022/07/09 23:34:12;;;;;;;10.03;3.50;;;15.80;99.90;;;;;;20965770;28;20041;-83
2022/07/09 23:44:12;;;;;;;3.30;2.00;;;15.70;99.90;;;;;;20945600;28;20104;-84
2022/07/09 23:54:13;;;;;;;5.20;2.50;;;15.70;99.90;;;;;;20931173;28;20518;-84
